< < Back
Terminal Aerodrome Forecast


Current Version              Previous Versions:   1  2  3  4  5  6  7  8  9  

Terminal Aerodrome Forecast

813
FTUS42 KCHS 120533
TAFSAV
TAF
KSAV 120533Z 1206/1306 VRB03KT P6SM FEW025 BKN060
     FM121000 VRB03KT P6SM SCT009 BKN015
     FM121600 25008KT P6SM SCT008 BKN020
     FM121900 28010KT P6SM BKN035
     FM122300 29005KT P6SM SCT040=

Latest METAR

986
SAUS80 KWBC 121400 CCA
MTRSAV
METAR KSAV 121353Z 21006KT 10SM FEW009 BKN024 OVC035 13/11 A3014 RMK AO2
SLP205 T01280106 $


USA.gov is the U.S. government's official web portal to all federal, state and local government web resources and services.